createdAt,value
2018-08-12T00:00:55.592Z,69.28
2018-08-12T00:02:01.361Z,69.21
2018-08-12T00:03:08.372Z,69.49
2018-08-12T00:04:13.765Z,69.15
2018-08-12T00:05:19.904Z,69.15
2018-08-12T00:06:25.490Z,68.79
2018-08-12T00:07:31.775Z,68.61
2018-08-12T00:08:37.497Z,68.12
2018-08-12T00:09:43.097Z,68.10
2018-08-12T00:10:50.437Z,68.52
2018-08-12T00:11:57.026Z,67.24
2018-08-12T00:13:02.780Z,68.02
2018-08-12T00:14:08.213Z,68.48
2018-08-12T00:15:13.528Z,68.26
2018-08-12T00:16:19.778Z,68.55
2018-08-12T00:17:25.776Z,68.66
2018-08-12T00:18:31.780Z,68.46
2018-08-12T00:19:37.800Z,69.38
2018-08-12T00:20:43.920Z,70.06
2018-08-12T00:21:49.219Z,69.71
2018-08-12T00:22:55.575Z,69.89
2018-08-12T00:24:01.396Z,70.38
2018-08-12T00:25:07.396Z,70.45
2018-08-12T00:26:13.305Z,69.97
2018-08-12T00:27:18.839Z,69.29
2018-08-12T00:28:24.904Z,69.95
2018-08-12T00:29:31.250Z,69.96
2018-08-12T00:30:37.223Z,69.56
2018-08-12T00:31:42.955Z,68.65
2018-08-12T00:32:48.899Z,68.63
2018-08-12T00:33:55.297Z,67.99
2018-08-12T00:35:01.007Z,67.43
2018-08-12T00:36:06.574Z,66.87
2018-08-12T00:37:12.614Z,66.60
2018-08-12T00:38:18.533Z,67.43
2018-08-12T00:39:25.510Z,68.37
2018-08-12T00:40:31.340Z,68.76
2018-08-12T00:41:37.596Z,68.85
2018-08-12T00:42:43.250Z,69.13
2018-08-12T00:43:49.562Z,69.74
2018-08-12T00:44:55.504Z,69.87
2018-08-12T00:46:01.208Z,70.53
2018-08-12T00:47:07.788Z,71.67
2018-08-12T00:48:13.724Z,71.61
2018-08-12T00:49:19.500Z,71.51
2018-08-12T00:50:25.524Z,71.27
2018-08-12T00:51:31.380Z,71.96
2018-08-12T00:52:37.778Z,72.67
2018-08-12T00:53:43.152Z,72.28
2018-08-12T00:54:49.216Z,71.56
2018-08-12T00:55:55.026Z,71.37
2018-08-12T00:57:00.898Z,71.81
2018-08-12T00:58:06.501Z,71.80
2018-08-12T00:59:12.891Z,71.64
2018-08-12T01:00:18.482Z,71.69
2018-08-12T01:01:24.563Z,71.54
2018-08-12T01:02:30.987Z,71.28
2018-08-12T01:03:36.680Z,71.58
2018-08-12T01:04:42.858Z,71.95
2018-08-12T01:05:48.792Z,72.40
2018-08-12T01:06:55.228Z,72.65
2018-08-12T01:08:01.187Z,72.79
2018-08-12T01:09:07.624Z,73.46
2018-08-12T01:10:13.471Z,73.33
2018-08-12T01:11:20.068Z,72.78
2018-08-12T01:12:26.101Z,72.87
2018-08-12T01:13:31.713Z,73.26
2018-08-12T01:14:37.651Z,73.86
2018-08-12T01:15:43.684Z,72.77
2018-08-12T01:16:49.730Z,72.51
2018-08-12T01:17:55.768Z,73.14
2018-08-12T01:19:01.796Z,72.97
2018-08-12T01:20:07.517Z,72.81
2018-08-12T01:21:13.580Z,73.09
2018-08-12T01:22:19.630Z,72.99
2018-08-12T01:23:25.929Z,72.72
2018-08-12T01:24:31.615Z,72.45
2018-08-12T01:25:37.903Z,72.41
2018-08-12T01:26:43.856Z,72.33
2018-08-12T01:27:49.920Z,72.46
2018-08-12T01:28:56.024Z,72.60
2018-08-12T01:30:02.622Z,72.80
2018-08-12T01:31:07.940Z,72.95
2018-08-12T01:32:13.645Z,73.00
2018-08-12T01:33:19.604Z,73.11
2018-08-12T01:34:25.288Z,72.80
2018-08-12T01:35:31.232Z,73.41
2018-08-12T01:36:36.926Z,73.20
2018-08-12T01:37:44.039Z,73.22
2018-08-12T01:38:51.132Z,73.01
2018-08-12T01:39:57.117Z,73.29
2018-08-12T01:41:03.536Z,73.05
2018-08-12T01:42:09.504Z,73.19
2018-08-12T01:43:16.164Z,73.26
2018-08-12T01:44:21.860Z,73.28
2018-08-12T01:45:28.004Z,73.15
2018-08-12T01:46:34.035Z,72.90
2018-08-12T01:47:41.075Z,73.05
2018-08-12T01:48:47.547Z,72.99
2018-08-12T01:49:53.826Z,73.04
2018-08-12T01:50:59.744Z,73.28
2018-08-12T01:52:05.656Z,73.05
2018-08-12T01:53:11.687Z,72.91
2018-08-12T01:54:17.916Z,73.67
2018-08-12T01:55:23.909Z,73.34
2018-08-12T01:56:30.232Z,73.65
2018-08-12T01:57:35.868Z,73.36
2018-08-12T01:58:42.152Z,73.02
2018-08-12T01:59:48.592Z,73.75
2018-08-12T02:00:54.682Z,74.83
2018-08-12T02:02:00.737Z,73.70
2018-08-12T02:03:06.160Z,73.67
2018-08-12T02:04:12.763Z,73.52
2018-08-12T02:05:18.150Z,73.28
2018-08-12T02:06:24.206Z,73.49
2018-08-12T02:07:30.330Z,73.22
2018-08-12T02:08:36.383Z,73.42
2018-08-12T02:09:42.805Z,73.57
2018-08-12T02:10:49.129Z,73.54
2018-08-12T02:11:55.593Z,73.73
2018-08-12T02:13:01.264Z,73.78
2018-08-12T02:14:06.677Z,74.20
2018-08-12T02:15:12.473Z,74.29
2018-08-12T02:16:18.152Z,74.41
2018-08-12T02:17:24.206Z,73.99
2018-08-12T02:18:30.888Z,74.29
2018-08-12T02:19:36.831Z,74.70
2018-08-12T02:20:42.939Z,74.70
2018-08-12T02:21:49.177Z,74.62
2018-08-12T02:22:55.489Z,74.17
2018-08-12T02:24:01.829Z,74.11
2018-08-12T02:25:08.442Z,73.70
2018-08-12T02:26:14.836Z,74.74
2018-08-12T02:27:21.296Z,75.32
2018-08-12T02:28:27.658Z,74.72
2018-08-12T02:29:33.999Z,74.21
2018-08-12T02:30:39.920Z,74.00
2018-08-12T02:31:46.176Z,73.92
2018-08-12T02:32:52.960Z,73.67
2018-08-12T02:33:59.704Z,73.79
2018-08-12T02:35:06.177Z,74.07
2018-08-12T02:36:12.220Z,74.15
2018-08-12T02:37:18.495Z,73.97
2018-08-12T02:38:24.436Z,74.02
2018-08-12T02:39:30.080Z,74.03
2018-08-12T02:40:36.996Z,74.18
2018-08-12T02:41:43.293Z,73.86
2018-08-12T02:42:49.716Z,73.90
2018-08-12T02:43:55.718Z,74.15
2018-08-12T02:45:01.797Z,74.07
2018-08-12T02:46:07.756Z,74.02
2018-08-12T02:47:13.745Z,74.63
2018-08-12T02:48:20.152Z,74.11
2018-08-12T02:49:26.617Z,73.72
2018-08-12T02:50:33.544Z,74.76
2018-08-12T02:51:39.220Z,74.46
2018-08-12T02:52:45.245Z,74.53
2018-08-12T02:53:51.601Z,75.03
2018-08-12T02:54:58.185Z,75.91
2018-08-12T02:56:03.935Z,75.79
2018-08-12T02:57:09.528Z,75.63
2018-08-12T02:58:15.943Z,74.78
2018-08-12T02:59:21.591Z,75.18
2018-08-12T03:00:27.933Z,74.98
2018-08-12T03:01:33.886Z,75.27
2018-08-12T03:02:39.257Z,75.56
2018-08-12T03:03:45.531Z,75.49
2018-08-12T03:04:51.549Z,76.01
2018-08-12T03:05:57.203Z,75.77
2018-08-12T03:07:03.120Z,75.80
2018-08-12T03:08:08.669Z,75.63
2018-08-12T03:09:15.413Z,76.00
2018-08-12T03:10:22.412Z,75.80
2018-08-12T03:11:28.475Z,75.65
2018-08-12T03:12:34.819Z,75.57
2018-08-12T03:13:41.140Z,76.40
2018-08-12T03:14:47.590Z,77.14
2018-08-12T03:15:53.872Z,77.30
2018-08-12T03:17:00.215Z,77.68
2018-08-12T03:18:05.871Z,78.19
2018-08-12T03:19:11.931Z,79.04
2018-08-12T03:20:18.321Z,78.09
2018-08-12T03:21:25.147Z,78.33
2018-08-12T03:22:31.712Z,78.23
2018-08-12T03:23:37.701Z,78.65
2018-08-12T03:24:44.530Z,78.43
2018-08-12T03:25:50.902Z,78.48
2018-08-12T03:27:04.841Z,79.15
2018-08-12T03:28:10.973Z,78.67
2018-08-12T03:29:17.313Z,77.90
2018-08-12T03:30:23.116Z,78.01
2018-08-12T03:31:29.624Z,78.95
2018-08-12T03:32:35.585Z,78.83
2018-08-12T03:33:41.679Z,78.97
2018-08-12T03:34:48.046Z,78.64
2018-08-12T03:35:54.260Z,78.42
2018-08-12T03:37:00.532Z,78.59
2018-08-12T03:38:06.297Z,78.26
2018-08-12T03:39:12.676Z,78.53
2018-08-12T03:40:19.682Z,78.49
2018-08-12T03:41:26.028Z,78.91
2018-08-12T03:42:32.856Z,78.99
2018-08-12T03:43:38.896Z,78.42
2018-08-12T03:44:44.799Z,78.78
2018-08-12T03:45:51.790Z,78.70
2018-08-12T03:46:57.758Z,78.34
2018-08-12T03:48:03.503Z,78.48
2018-08-12T03:49:09.595Z,79.03
2018-08-12T03:50:16.864Z,78.69
2018-08-12T03:51:23.894Z,79.55
2018-08-12T03:52:30.237Z,79.51
2018-08-12T03:53:35.848Z,79.16
2018-08-12T03:54:42.241Z,79.40
2018-08-12T03:55:48.260Z,80.01
2018-08-12T03:56:53.894Z,79.50
2018-08-12T03:58:00.256Z,79.33
2018-08-12T03:59:07.245Z,79.13
2018-08-12T04:00:12.830Z,79.30
2018-08-12T04:01:18.827Z,79.48
2018-08-12T04:02:25.302Z,79.59
2018-08-12T04:03:31.749Z,79.49
2018-08-12T04:04:38.066Z,79.86
2018-08-12T04:05:44.145Z,79.73
2018-08-12T04:06:50.528Z,79.85
2018-08-12T04:07:57.003Z,79.79
2018-08-12T04:09:03.275Z,79.44
2018-08-12T04:10:09.280Z,79.31
2018-08-12T04:11:15.720Z,79.65
2018-08-12T04:12:22.005Z,80.03
2018-08-12T04:13:28.347Z,80.52
2018-08-12T04:14:34.664Z,80.90
2018-08-12T04:15:41.324Z,80.73
2018-08-12T04:16:47.567Z,80.76
2018-08-12T04:17:53.560Z,80.33
2018-08-12T04:18:59.799Z,80.89
2018-08-12T04:20:05.622Z,80.81
2018-08-12T04:21:11.890Z,81.59
2018-08-12T04:22:18.199Z,82.36
2018-08-12T04:23:24.148Z,83.32
2018-08-12T04:24:31.340Z,83.37
2018-08-12T04:25:37.204Z,82.23
2018-08-12T04:26:43.559Z,83.06
2018-08-12T04:27:49.861Z,82.85
2018-08-12T04:28:56.567Z,82.90
2018-08-12T04:30:02.496Z,82.35
2018-08-12T04:31:10.849Z,82.01
2018-08-12T04:32:16.885Z,81.51
2018-08-12T04:33:22.813Z,81.46
2018-08-12T04:34:29.166Z,80.77
2018-08-12T04:35:35.548Z,81.26
2018-08-12T04:36:41.148Z,81.43
2018-08-12T04:37:47.506Z,82.86
2018-08-12T04:38:53.793Z,81.59
2018-08-12T04:40:00.006Z,81.30
2018-08-12T04:41:06.308Z,81.35
2018-08-12T04:42:12.196Z,80.59
2018-08-12T04:43:18.068Z,80.86
2018-08-12T04:44:24.074Z,81.27
2018-08-12T04:45:30.427Z,81.20
2018-08-12T04:46:36.916Z,81.31
2018-08-12T04:47:43.303Z,81.43
2018-08-12T04:48:50.554Z,81.12
2018-08-12T04:49:57.559Z,82.10
2018-08-12T04:51:03.224Z,81.85
2018-08-12T04:52:09.923Z,81.46
2018-08-12T04:53:15.821Z,81.46
2018-08-12T04:54:21.855Z,81.02
2018-08-12T04:55:27.739Z,80.78
2018-08-12T04:56:34.097Z,80.50
2018-08-12T04:57:40.036Z,80.30
2018-08-12T04:58:45.972Z,80.62
2018-08-12T04:59:52.068Z,80.73
2018-08-12T05:00:58.325Z,80.54
2018-08-12T05:02:03.920Z,79.58
2018-08-12T05:03:10.332Z,79.42
2018-08-12T05:04:16.264Z,79.09
2018-08-12T05:05:22.683Z,78.43
2018-08-12T05:06:28.968Z,77.51
2018-08-12T05:07:34.912Z,77.88
2018-08-12T05:08:41.252Z,78.59
2018-08-12T05:09:47.670Z,79.04
2018-08-12T05:10:54.990Z,79.21
2018-08-12T05:12:00.622Z,79.20
2018-08-12T05:13:06.854Z,79.47
2018-08-12T05:14:14.066Z,79.43
2018-08-12T05:15:19.651Z,78.85
2018-08-12T05:16:25.978Z,78.73
2018-08-12T05:17:32.302Z,77.97
2018-08-12T05:18:39.419Z,76.78
2018-08-12T05:19:46.383Z,76.89
2018-08-12T05:20:52.439Z,76.35
2018-08-12T05:21:58.837Z,75.49
2018-08-12T05:23:05.648Z,75.55
2018-08-12T05:24:11.651Z,75.57
2018-08-12T05:25:17.869Z,75.14
2018-08-12T05:26:23.976Z,74.19
2018-08-12T05:27:30.321Z,74.39
2018-08-12T05:28:36.648Z,73.57
2018-08-12T05:29:42.992Z,72.22
2018-08-12T05:30:49.654Z,71.04
2018-08-12T05:31:56.187Z,71.69
2018-08-12T05:33:02.821Z,71.00
2018-08-12T05:34:08.833Z,70.88
2018-08-12T05:35:15.395Z,70.40
2018-08-12T05:36:22.645Z,70.12
2018-08-12T05:37:28.954Z,69.02
2018-08-12T05:38:35.260Z,67.86
2018-08-12T05:39:41.061Z,68.04
2018-08-12T05:40:47.373Z,67.94
2018-08-12T05:41:53.404Z,67.94
2018-08-12T05:42:59.438Z,68.13
2018-08-12T05:44:05.106Z,68.29
2018-08-12T05:45:12.368Z,68.71
2018-08-12T05:46:18.958Z,68.67
2018-08-12T05:47:24.908Z,68.33
2018-08-12T05:48:30.571Z,69.51
2018-08-12T05:49:36.954Z,68.53
2018-08-12T05:50:43.312Z,68.44
2018-08-12T05:51:49.607Z,68.20
2018-08-12T05:52:55.551Z,67.24
2018-08-12T05:54:02.511Z,67.53
2018-08-12T05:55:08.237Z,68.13
2018-08-12T05:56:14.176Z,67.70
2018-08-12T05:57:20.261Z,66.36
2018-08-12T05:58:26.430Z,65.86
2018-08-12T05:59:32.993Z,64.88
2018-08-12T06:00:38.574Z,64.47
2018-08-12T06:01:44.646Z,63.51
2018-08-12T06:02:50.763Z,65.27
2018-08-12T06:03:56.699Z,66.24
2018-08-12T06:05:02.733Z,66.08
2018-08-12T06:06:08.755Z,66.32
2018-08-12T06:07:15.107Z,67.46
2018-08-12T06:08:20.707Z,67.94
2018-08-12T06:09:26.985Z,68.42
2018-08-12T06:10:33.724Z,66.99
2018-08-12T06:11:39.829Z,67.47
2018-08-12T06:12:46.129Z,67.25
2018-08-12T06:13:52.427Z,66.78
2018-08-12T06:14:58.365Z,67.86
2018-08-12T06:16:05.384Z,67.48
2018-08-12T06:17:11.721Z,67.04
2018-08-12T06:18:17.872Z,66.92
2018-08-12T06:19:24.247Z,66.95
2018-08-12T06:20:30.144Z,67.04
2018-08-12T06:21:35.501Z,68.43
2018-08-12T06:22:41.792Z,69.08
2018-08-12T06:23:47.464Z,68.48
2018-08-12T06:24:53.072Z,65.62
2018-08-12T06:25:59.412Z,65.64
2018-08-12T06:27:05.313Z,64.88
2018-08-12T06:28:11.179Z,65.36
2018-08-12T06:29:17.684Z,67.13
2018-08-12T06:30:23.746Z,66.44
2018-08-12T06:31:29.958Z,63.33
2018-08-12T06:32:35.879Z,62.47
2018-08-12T06:33:42.429Z,60.75
2018-08-12T06:34:49.493Z,60.76
2018-08-12T06:35:55.663Z,61.06
2018-08-12T06:37:01.717Z,61.50
2018-08-12T06:38:08.092Z,62.39
2018-08-12T06:39:14.345Z,61.50
2018-08-12T06:40:19.976Z,63.30
2018-08-12T06:41:26.630Z,61.31
2018-08-12T06:42:32.650Z,61.49
2018-08-12T06:43:38.685Z,62.64
2018-08-12T06:44:44.723Z,62.43
2018-08-12T06:45:51.141Z,61.14
2018-08-12T06:46:57.433Z,60.97
2018-08-12T06:48:03.475Z,59.29
2018-08-12T06:49:10.949Z,58.33
2018-08-12T06:50:16.800Z,58.81
2018-08-12T06:51:22.942Z,59.19
2018-08-12T06:52:29.302Z,60.06
2018-08-12T06:53:35.576Z,60.45
2018-08-12T06:54:41.926Z,59.33
2018-08-12T06:55:49.512Z,55.91
2018-08-12T06:56:57.610Z,56.31
2018-08-12T06:58:04.705Z,55.10
2018-08-12T06:59:10.344Z,55.16
2018-08-12T07:00:16.270Z,53.11
2018-08-12T07:01:22.898Z,52.80
2018-08-12T07:02:29.276Z,52.84
2018-08-12T07:03:35.573Z,53.42
2018-08-12T07:04:41.639Z,52.25
2018-08-12T07:05:48.014Z,52.15
2018-08-12T07:06:53.960Z,52.02
2018-08-12T07:07:59.862Z,51.43
2018-08-12T07:09:05.512Z,51.87
2018-08-12T07:10:12.479Z,51.55
2018-08-12T07:11:18.462Z,51.39
2018-08-12T07:12:25.364Z,50.87
2018-08-12T07:13:31.768Z,48.79
2018-08-12T07:14:37.872Z,48.21
2018-08-12T07:15:44.211Z,48.81
2018-08-12T07:16:50.115Z,48.81
2018-08-12T07:17:56.167Z,48.45
2018-08-12T07:19:02.072Z,49.98
2018-08-12T07:20:07.857Z,48.58
2018-08-12T07:21:13.732Z,48.61
2018-08-12T07:22:19.164Z,48.94
2018-08-12T07:23:26.107Z,48.89
2018-08-12T07:24:32.142Z,48.94
2018-08-12T07:25:38.454Z,47.69
2018-08-12T07:26:44.032Z,47.63
2018-08-12T07:27:50.064Z,47.83
2018-08-12T07:28:56.390Z,48.40
2018-08-12T07:30:02.295Z,49.51
2018-08-12T07:31:08.318Z,49.61
2018-08-12T07:32:14.220Z,49.45
2018-08-12T07:33:20.595Z,47.63
2018-08-12T07:34:26.728Z,48.31
2018-08-12T07:35:32.980Z,49.16
2018-08-12T07:36:38.937Z,49.13
2018-08-12T07:37:45.433Z,47.71
2018-08-12T07:38:51.764Z,48.56
2018-08-12T07:39:58.285Z,47.79
2018-08-12T07:41:04.697Z,45.81
2018-08-12T07:42:12.289Z,44.69
2018-08-12T07:43:18.667Z,45.29
2018-08-12T07:44:25.160Z,45.92
2018-08-12T07:45:31.629Z,45.52
2018-08-12T07:46:37.542Z,45.18
2018-08-12T07:47:43.248Z,45.05
2018-08-12T07:48:49.766Z,44.09
2018-08-12T07:49:56.012Z,44.06
2018-08-12T07:51:02.421Z,44.40
2018-08-12T07:52:08.962Z,43.53
2018-08-12T07:53:16.568Z,44.72
2018-08-12T07:54:24.208Z,44.68
2018-08-12T07:55:32.302Z,45.30
2018-08-12T07:56:40.397Z,44.31
2018-08-12T07:57:47.795Z,41.96
2018-08-12T07:58:55.377Z,42.15
2018-08-12T08:00:04.256Z,41.73
2018-08-12T08:01:11.367Z,41.18
2018-08-12T08:02:17.949Z,42.16
2018-08-12T08:03:25.355Z,42.47
2018-08-12T08:04:32.092Z,44.00
2018-08-12T08:05:39.853Z,44.20
2018-08-12T08:06:46.572Z,40.74
2018-08-12T08:07:53.724Z,41.92
2018-08-12T08:09:00.372Z,41.24
2018-08-12T08:10:07.445Z,41.39
2018-08-12T08:11:15.824Z,39.93
2018-08-12T08:12:22.315Z,40.16
2018-08-12T08:13:28.720Z,40.20
2018-08-12T08:14:35.722Z,40.53
2018-08-12T08:15:44.243Z,40.92
2018-08-12T08:16:51.760Z,38.83
2018-08-12T08:17:59.321Z,39.16
2018-08-12T08:19:08.747Z,39.49
2018-08-12T08:20:15.342Z,40.05
2018-08-12T08:21:20.894Z,38.49
2018-08-12T08:22:26.820Z,38.17
2018-08-12T08:23:32.749Z,37.74
2018-08-12T08:24:39.152Z,38.01
2018-08-12T08:25:45.119Z,37.40
2018-08-12T08:26:51.072Z,37.74
2018-08-12T08:27:57.061Z,37.96
2018-08-12T08:29:02.776Z,37.90
2018-08-12T08:30:08.420Z,38.32
2018-08-12T08:31:14.324Z,37.49
2018-08-12T08:32:20.778Z,37.15
2018-08-12T08:33:26.899Z,36.93
2018-08-12T08:34:33.324Z,35.77
2018-08-12T08:35:38.945Z,35.27
2018-08-12T08:36:44.964Z,37.41
2018-08-12T08:37:50.899Z,38.10
2018-08-12T08:38:56.865Z,36.06
2018-08-12T08:40:04.270Z,35.65
2018-08-12T08:41:10.670Z,37.18
2018-08-12T08:42:16.696Z,36.64
2018-08-12T08:43:22.688Z,36.21
2018-08-12T08:44:29.092Z,34.95
2018-08-12T08:45:34.896Z,36.25
2018-08-12T08:46:40.845Z,36.65
2018-08-12T08:47:49.672Z,36.62
2018-08-12T08:48:56.077Z,35.83
2018-08-12T08:50:02.430Z,36.13
2018-08-12T08:51:08.943Z,35.86
2018-08-12T08:52:14.959Z,35.66
2018-08-12T08:53:21.399Z,35.95
2018-08-12T08:54:27.669Z,36.16
2018-08-12T08:55:33.494Z,37.00
2018-08-12T08:56:39.961Z,36.43
2018-08-12T08:57:45.589Z,36.54
2018-08-12T08:58:52.045Z,35.80
2018-08-12T08:59:58.400Z,35.97
2018-08-12T09:01:04.032Z,36.95
2018-08-12T09:02:10.964Z,35.96
2018-08-12T09:03:17.608Z,35.71
2018-08-12T09:04:24.130Z,36.20
2018-08-12T09:05:30.019Z,35.04
2018-08-12T09:06:36.022Z,35.96
2018-08-12T09:07:42.272Z,35.26
2018-08-12T09:08:48.507Z,34.20
2018-08-12T09:09:54.824Z,34.18
2018-08-12T09:11:00.429Z,35.33
2018-08-12T09:12:06.369Z,36.26
2018-08-12T09:13:12.454Z,34.80
2018-08-12T09:14:18.732Z,35.41
2018-08-12T09:15:24.473Z,34.89
2018-08-12T09:16:30.111Z,34.86
2018-08-12T09:17:36.425Z,35.14
2018-08-12T09:18:42.757Z,36.00
2018-08-12T09:19:49.163Z,34.65
2018-08-12T09:20:57.452Z,36.51
2018-08-12T09:22:04.008Z,34.92
2018-08-12T09:23:10.383Z,34.32
2018-08-12T09:24:16.685Z,34.06
2018-08-12T09:25:22.962Z,34.73
2018-08-12T09:26:28.980Z,33.97
2018-08-12T09:27:35.311Z,35.07
2018-08-12T09:28:41.169Z,34.58
2018-08-12T09:29:47.120Z,34.07
2018-08-12T09:30:53.024Z,33.46
2018-08-12T09:31:59.058Z,33.32
2018-08-12T09:33:05.555Z,33.95
2018-08-12T09:34:12.425Z,35.24
2018-08-12T09:35:18.039Z,34.41
2018-08-12T09:36:23.744Z,35.50
2018-08-12T09:37:29.755Z,34.01
2018-08-12T09:38:36.060Z,35.41
2018-08-12T09:39:42.512Z,33.72
2018-08-12T09:40:48.188Z,34.18
2018-08-12T09:41:54.315Z,34.43
2018-08-12T09:43:00.571Z,33.68
2018-08-12T09:44:06.566Z,34.85
2018-08-12T09:45:12.025Z,34.58
2018-08-12T09:46:18.023Z,32.37
2018-08-12T09:47:24.040Z,32.18
2018-08-12T09:48:30.612Z,32.69
2018-08-12T09:49:37.873Z,33.32
2018-08-12T09:50:44.119Z,32.71
2018-08-12T09:51:50.600Z,32.60
2018-08-12T09:52:56.628Z,32.40
2018-08-12T09:54:02.382Z,31.97
2018-08-12T09:55:08.444Z,31.81
2018-08-12T09:56:14.524Z,31.89
2018-08-12T09:57:20.892Z,32.38
2018-08-12T09:58:27.232Z,31.97
2018-08-12T09:59:33.844Z,31.53
2018-08-12T10:00:40.225Z,30.92
2018-08-12T10:01:46.537Z,31.04
2018-08-12T10:02:52.196Z,32.05
2018-08-12T10:03:58.589Z,31.40
2018-08-12T10:05:06.615Z,31.49
2018-08-12T10:06:13.496Z,32.01
2018-08-12T10:07:19.734Z,31.43
2018-08-12T10:08:26.056Z,30.61
2018-08-12T10:09:32.492Z,31.25
2018-08-12T10:10:38.847Z,31.67
2018-08-12T10:11:45.204Z,30.64
2018-08-12T10:12:52.612Z,30.82
2018-08-12T10:13:58.236Z,31.20
2018-08-12T10:15:04.085Z,31.79
2018-08-12T10:16:09.414Z,31.05
2018-08-12T10:17:15.580Z,30.17
2018-08-12T10:18:21.968Z,31.22
2018-08-12T10:19:27.732Z,30.83
2018-08-12T10:20:34.911Z,30.36
2018-08-12T10:21:40.917Z,30.87
2018-08-12T10:22:47.164Z,30.48
2018-08-12T10:23:53.503Z,30.50
2018-08-12T10:24:59.563Z,30.31
2018-08-12T10:26:06.304Z,29.99
2018-08-12T10:27:12.688Z,30.39
2018-08-12T10:28:18.956Z,29.69
2018-08-12T10:29:25.069Z,30.02
2018-08-12T10:30:31.364Z,29.44
2018-08-12T10:31:37.312Z,30.27
2018-08-12T10:32:42.889Z,30.64
2018-08-12T10:33:48.979Z,29.95
2018-08-12T10:34:55.223Z,31.19
2018-08-12T10:36:01.970Z,30.99
2018-08-12T10:37:07.968Z,30.68
2018-08-12T10:38:13.859Z,30.56
2018-08-12T10:39:19.974Z,30.50
2018-08-12T10:40:25.541Z,30.45
2018-08-12T10:41:31.824Z,29.83
2018-08-12T10:42:37.813Z,29.96
2018-08-12T10:43:44.183Z,30.97
2018-08-12T10:44:50.171Z,32.22
2018-08-12T10:45:56.457Z,30.83
2018-08-12T10:47:02.321Z,30.51
2018-08-12T10:48:08.050Z,31.28
2018-08-12T10:49:13.712Z,30.10
2018-08-12T10:50:20.235Z,31.23
2018-08-12T10:51:26.237Z,29.69
2018-08-12T10:52:32.343Z,29.74
2018-08-12T10:53:39.032Z,30.76
2018-08-12T10:54:44.810Z,29.72
2018-08-12T10:55:50.739Z,30.50
2018-08-12T10:56:57.288Z,29.96
2018-08-12T10:58:03.452Z,30.05
2018-08-12T10:59:09.080Z,29.90
2018-08-12T11:00:14.428Z,28.89
2018-08-12T11:01:20.316Z,28.87
2018-08-12T11:02:25.720Z,28.37
2018-08-12T11:03:31.563Z,28.91
2018-08-12T11:04:37.283Z,28.81
2018-08-12T11:05:43.288Z,28.46
2018-08-12T11:06:49.409Z,28.82
2018-08-12T11:07:55.408Z,28.95
2018-08-12T11:09:01.022Z,29.03
2018-08-12T11:10:06.380Z,28.71
2018-08-12T11:11:12.360Z,28.76
2018-08-12T11:12:18.363Z,27.73
2018-08-12T11:13:24.096Z,27.98
2018-08-12T11:14:30.120Z,28.41
2018-08-12T11:15:36.094Z,28.96
2018-08-12T11:16:42.402Z,29.83
2018-08-12T11:17:48.024Z,30.52
2018-08-12T11:18:54.109Z,29.23
2018-08-12T11:20:00.112Z,28.28
2018-08-12T11:21:06.126Z,28.52
2018-08-12T11:22:13.041Z,27.19
2018-08-12T11:23:18.657Z,27.44
2018-08-12T11:24:24.345Z,27.30
2018-08-12T11:25:30.587Z,27.99
2018-08-12T11:26:36.263Z,28.60
2018-08-12T11:27:42.872Z,27.61
2018-08-12T11:28:48.879Z,27.47
2018-08-12T11:29:55.167Z,27.50
2018-08-12T11:31:02.432Z,27.15
2018-08-12T11:32:08.703Z,27.47
2018-08-12T11:33:14.658Z,26.89
2018-08-12T11:34:20.044Z,26.85
2018-08-12T11:35:26.086Z,27.04
2018-08-12T11:36:32.102Z,27.91
2018-08-12T11:37:37.776Z,27.48
2018-08-12T11:38:43.347Z,26.51
2018-08-12T11:39:49.070Z,27.06
2018-08-12T11:40:55.098Z,28.17
2018-08-12T11:42:00.782Z,27.72
2018-08-12T11:43:06.971Z,26.99
2018-08-12T11:44:13.485Z,26.36
2018-08-12T11:45:19.123Z,26.40
2018-08-12T11:46:25.236Z,26.55
2018-08-12T11:47:31.297Z,27.68
2018-08-12T11:48:38.346Z,27.02
2018-08-12T11:49:46.049Z,26.58
2018-08-12T11:50:51.429Z,27.08
2018-08-12T11:51:57.178Z,25.78
2018-08-12T11:53:02.571Z,26.12
2018-08-12T11:54:07.792Z,26.40
2018-08-12T11:55:13.112Z,26.56
2018-08-12T11:56:18.810Z,27.23
2018-08-12T11:57:24.544Z,26.02
2018-08-12T11:58:30.260Z,25.75
2018-08-12T11:59:37.032Z,24.70
2018-08-12T12:00:42.621Z,24.52
2018-08-12T12:01:47.880Z,24.97
2018-08-12T12:02:53.278Z,25.19
2018-08-12T12:03:59.024Z,25.67
2018-08-12T12:05:04.414Z,25.47
2018-08-12T12:06:10.467Z,25.25
2018-08-12T12:07:15.784Z,25.13
2018-08-12T12:08:23.440Z,26.16
2018-08-12T12:09:29.529Z,25.76
2018-08-12T12:10:35.536Z,24.95
2018-08-12T12:11:41.500Z,26.23
2018-08-12T12:12:46.853Z,26.41
2018-08-12T12:13:52.537Z,26.75
2018-08-12T12:14:58.535Z,25.88
2018-08-12T12:16:04.034Z,26.20
2018-08-12T12:17:09.628Z,26.18
2018-08-12T12:18:16.617Z,26.03
2018-08-12T12:19:22.290Z,27.85
2018-08-12T12:20:28.276Z,25.74
2018-08-12T12:21:34.459Z,25.29
2018-08-12T12:22:39.758Z,25.36
2018-08-12T12:23:45.720Z,25.67
2018-08-12T12:24:51.763Z,25.37
2018-08-12T12:25:57.207Z,25.08
2018-08-12T12:27:03.490Z,26.11
2018-08-12T12:28:09.407Z,25.87
2018-08-12T12:29:15.233Z,27.60
2018-08-12T12:30:20.576Z,26.72
2018-08-12T12:31:26.478Z,26.33
2018-08-12T12:32:32.307Z,27.04
2018-08-12T12:33:37.980Z,26.12
2018-08-12T12:34:43.963Z,25.71
2018-08-12T12:35:49.268Z,25.99
2018-08-12T12:36:54.898Z,24.74
2018-08-12T12:38:00.350Z,26.27
2018-08-12T12:39:05.748Z,25.17
2018-08-12T12:40:12.288Z,24.86
2018-08-12T12:41:17.515Z,25.33
2018-08-12T12:42:23.324Z,24.64
2018-08-12T12:43:29.075Z,25.32
2018-08-12T12:44:34.827Z,26.46
2018-08-12T12:45:40.843Z,25.19
2018-08-12T12:46:46.243Z,25.43
2018-08-12T12:47:52.008Z,25.15
2018-08-12T12:48:57.416Z,24.61
2018-08-12T12:50:03.106Z,25.56
2018-08-12T12:51:09.301Z,24.88
2018-08-12T12:52:15.051Z,24.84
2018-08-12T12:53:21.103Z,24.50
2018-08-12T12:54:27.105Z,25.85
2018-08-12T12:55:32.792Z,25.44
2018-08-12T12:56:38.922Z,25.16
2018-08-12T12:57:44.596Z,24.98
2018-08-12T12:58:50.303Z,26.71
2018-08-12T12:59:56.319Z,25.58
2018-08-12T13:01:01.992Z,27.04
2018-08-12T13:02:07.600Z,28.02
2018-08-12T13:03:13.359Z,25.51
2018-08-12T13:04:19.090Z,25.84
2018-08-12T13:05:24.971Z,25.74
2018-08-12T13:06:30.688Z,25.20
2018-08-12T13:07:36.814Z,24.77
2018-08-12T13:08:42.819Z,24.82
2018-08-12T13:09:48.830Z,24.16
2018-08-12T13:10:54.165Z,24.94
2018-08-12T13:11:59.528Z,25.34
2018-08-12T13:13:04.853Z,24.30
2018-08-12T13:14:10.560Z,24.58
2018-08-12T13:15:15.901Z,24.05
2018-08-12T13:16:22.023Z,24.35
2018-08-12T13:17:28.112Z,23.88
2018-08-12T13:18:34.104Z,24.53
2018-08-12T13:19:40.107Z,23.74
2018-08-12T13:20:46.028Z,24.65
2018-08-12T13:21:52.017Z,24.73
2018-08-12T13:22:57.696Z,25.46
2018-08-12T13:24:03.492Z,24.46
2018-08-12T13:25:09.094Z,24.60
2018-08-12T13:26:14.916Z,25.13
2018-08-12T13:27:20.574Z,25.22
2018-08-12T13:28:27.181Z,24.68
2018-08-12T13:29:33.250Z,23.86
2018-08-12T13:30:38.578Z,23.84
2018-08-12T13:31:44.199Z,24.06
2018-08-12T13:32:49.869Z,24.26
2018-08-12T13:33:55.487Z,24.59
2018-08-12T13:35:01.459Z,24.43
2018-08-12T13:36:07.124Z,24.84
2018-08-12T13:37:12.868Z,24.07
2018-08-12T13:38:18.561Z,24.56
2018-08-12T13:39:24.265Z,24.83
2018-08-12T13:40:30.475Z,24.65
2018-08-12T13:41:36.056Z,24.74
2018-08-12T13:42:41.455Z,24.00
2018-08-12T13:43:47.250Z,24.76
2018-08-12T13:44:52.956Z,23.40
2018-08-12T13:45:58.678Z,23.70
2018-08-12T13:47:04.823Z,24.38
2018-08-12T13:48:10.125Z,24.87
2018-08-12T13:49:15.633Z,24.75
2018-08-12T13:50:21.139Z,25.03
2018-08-12T13:51:26.534Z,24.79
2018-08-12T13:52:32.579Z,25.68
2018-08-12T13:53:38.240Z,24.67
2018-08-12T13:54:44.217Z,26.10
2018-08-12T13:55:49.889Z,23.66
2018-08-12T13:56:55.617Z,23.43
2018-08-12T13:58:00.996Z,23.44
2018-08-12T13:59:07.084Z,24.02
2018-08-12T14:00:12.728Z,24.29
2018-08-12T14:01:18.713Z,23.95
2018-08-12T14:02:25.053Z,22.87
2018-08-12T14:03:31.008Z,23.68
2018-08-12T14:04:40.854Z,24.19
2018-08-12T14:05:46.828Z,27.04
2018-08-12T14:06:52.848Z,24.75
2018-08-12T14:07:58.488Z,23.73
2018-08-12T14:09:03.694Z,23.73
2018-08-12T14:10:09.181Z,24.37
2018-08-12T14:11:14.634Z,24.68
2018-08-12T14:12:20.342Z,23.13